sensor_id;sensor_type;location;lat;lon;timestamp;P1;durP1;ratioP1;P2;durP2;ratioP2
11453;SDS011;5783;55.174;61.310;2022-10-16T00:02:02;0.80;;;0.80;;
11453;SDS011;5783;55.174;61.310;2022-10-16T00:04:32;1.00;;;0.90;;
11453;SDS011;5783;55.174;61.310;2022-10-16T00:07:01;0.83;;;0.83;;
11453;SDS011;5783;55.174;61.310;2022-10-16T00:09:30;1.13;;;0.87;;
11453;SDS011;5783;55.174;61.310;2022-10-16T00:11:59;0.90;;;0.90;;
11453;SDS011;5783;55.174;61.310;2022-10-16T00:14:30;0.90;;;0.90;;
11453;SDS011;5783;55.174;61.310;2022-10-16T00:16:59;0.80;;;0.80;;
11453;SDS011;5783;55.174;61.310;2022-10-16T00:19:28;1.05;;;0.95;;
11453;SDS011;5783;55.174;61.310;2022-10-16T00:21:57;1.00;;;1.00;;
11453;SDS011;5783;55.174;61.310;2022-10-16T00:24:46;0.90;;;0.90;;
11453;SDS011;5783;55.174;61.310;2022-10-16T00:27:15;0.90;;;0.90;;
11453;SDS011;5783;55.174;61.310;2022-10-16T00:29:44;0.90;;;0.90;;
11453;SDS011;5783;55.174;61.310;2022-10-16T00:32:15;1.07;;;0.90;;
11453;SDS011;5783;55.174;61.310;2022-10-16T00:34:44;0.73;;;0.73;;
11453;SDS011;5783;55.174;61.310;2022-10-16T00:37:13;0.90;;;0.90;;
11453;SDS011;5783;55.174;61.310;2022-10-16T00:39:42;1.97;;;1.10;;
11453;SDS011;5783;55.174;61.310;2022-10-16T00:45:00;0.80;;;0.80;;
11453;SDS011;5783;55.174;61.310;2022-10-16T00:47:32;0.70;;;0.70;;
11453;SDS011;5783;55.174;61.310;2022-10-16T00:52:53;0.90;;;0.90;;
11453;SDS011;5783;55.174;61.310;2022-10-16T00:55:24;1.10;;;1.00;;
11453;SDS011;5783;55.174;61.310;2022-10-16T00:57:55;1.00;;;0.90;;
11453;SDS011;5783;55.174;61.310;2022-10-16T01:00:26;0.80;;;0.80;;
11453;SDS011;5783;55.174;61.310;2022-10-16T01:02:56;0.90;;;0.90;;
11453;SDS011;5783;55.174;61.310;2022-10-16T01:08:22;1.00;;;1.00;;
11453;SDS011;5783;55.174;61.310;2022-10-16T01:11:12;1.20;;;1.10;;
11453;SDS011;5783;55.174;61.310;2022-10-16T01:14:00;0.90;;;0.90;;
11453;SDS011;5783;55.174;61.310;2022-10-16T01:16:34;1.10;;;1.00;;
11453;SDS011;5783;55.174;61.310;2022-10-16T01:21:55;0.90;;;0.90;;
11453;SDS011;5783;55.174;61.310;2022-10-16T01:27:15;0.75;;;0.75;;
11453;SDS011;5783;55.174;61.310;2022-10-16T01:35:46;1.23;;;1.13;;
11453;SDS011;5783;55.174;61.310;2022-10-16T01:40:51;1.00;;;0.90;;
11453;SDS011;5783;55.174;61.310;2022-10-16T01:46:13;1.15;;;1.05;;
11453;SDS011;5783;55.174;61.310;2022-10-16T01:48:45;0.70;;;0.70;;
11453;SDS011;5783;55.174;61.310;2022-10-16T01:51:16;0.80;;;0.70;;
11453;SDS011;5783;55.174;61.310;2022-10-16T01:53:48;0.93;;;0.90;;
11453;SDS011;5783;55.174;61.310;2022-10-16T01:56:19;0.60;;;0.60;;
11453;SDS011;5783;55.174;61.310;2022-10-16T02:06:58;0.80;;;0.80;;
11453;SDS011;5783;55.174;61.310;2022-10-16T02:09:27;0.80;;;0.80;;
11453;SDS011;5783;55.174;61.310;2022-10-16T02:12:00;1.20;;;1.00;;
11453;SDS011;5783;55.174;61.310;2022-10-16T02:14:49;1.55;;;0.70;;
11453;SDS011;5783;55.174;61.310;2022-10-16T02:19:48;0.80;;;0.80;;
11453;SDS011;5783;55.174;61.310;2022-10-16T02:33:39;0.70;;;0.70;;
11453;SDS011;5783;55.174;61.310;2022-10-16T02:36:11;0.80;;;0.80;;
11453;SDS011;5783;55.174;61.310;2022-10-16T02:38:41;0.60;;;0.60;;
11453;SDS011;5783;55.174;61.310;2022-10-16T02:43:38;0.80;;;0.80;;
11453;SDS011;5783;55.174;61.310;2022-10-16T02:46:07;0.80;;;0.80;;
11453;SDS011;5783;55.174;61.310;2022-10-16T02:51:05;0.70;;;0.60;;
11453;SDS011;5783;55.174;61.310;2022-10-16T02:53:35;0.80;;;0.80;;
11453;SDS011;5783;55.174;61.310;2022-10-16T02:56:04;0.70;;;0.70;;
11453;SDS011;5783;55.174;61.310;2022-10-16T02:58:33;1.30;;;0.60;;
11453;SDS011;5783;55.174;61.310;2022-10-16T03:05:58;0.60;;;0.60;;
11453;SDS011;5783;55.174;61.310;2022-10-16T03:10:57;0.70;;;0.70;;
11453;SDS011;5783;55.174;61.310;2022-10-16T03:13:26;0.80;;;0.80;;
11453;SDS011;5783;55.174;61.310;2022-10-16T03:18:23;0.70;;;0.70;;
11453;SDS011;5783;55.174;61.310;2022-10-16T03:20:52;0.90;;;0.90;;
11453;SDS011;5783;55.174;61.310;2022-10-16T03:25:49;0.70;;;0.70;;
11453;SDS011;5783;55.174;61.310;2022-10-16T03:28:19;1.80;;;1.00;;
11453;SDS011;5783;55.174;61.310;2022-10-16T03:30:48;0.80;;;0.80;;
11453;SDS011;5783;55.174;61.310;2022-10-16T03:33:18;0.70;;;0.70;;
11453;SDS011;5783;55.174;61.310;2022-10-16T03:38:34;1.00;;;0.90;;
11453;SDS011;5783;55.174;61.310;2022-10-16T03:41:03;1.10;;;1.00;;
11453;SDS011;5783;55.174;61.310;2022-10-16T03:43:33;1.30;;;0.80;;
11453;SDS011;5783;55.174;61.310;2022-10-16T03:46:02;2.20;;;0.95;;
11453;SDS011;5783;55.174;61.310;2022-10-16T03:48:31;1.35;;;1.20;;
11453;SDS011;5783;55.174;61.310;2022-10-16T03:51:01;1.00;;;0.90;;
11453;SDS011;5783;55.174;61.310;2022-10-16T03:53:30;1.10;;;1.00;;
11453;SDS011;5783;55.174;61.310;2022-10-16T03:55:59;1.40;;;1.10;;
11453;SDS011;5783;55.174;61.310;2022-10-16T04:00:56;1.25;;;1.15;;
11453;SDS011;5783;55.174;61.310;2022-10-16T04:03:25;1.60;;;1.30;;
11453;SDS011;5783;55.174;61.310;2022-10-16T04:05:54;1.20;;;1.10;;
11453;SDS011;5783;55.174;61.310;2022-10-16T04:08:24;1.00;;;1.00;;
11453;SDS011;5783;55.174;61.310;2022-10-16T04:10:53;2.27;;;1.17;;
11453;SDS011;5783;55.174;61.310;2022-10-16T04:13:22;1.00;;;0.75;;
11453;SDS011;5783;55.174;61.310;2022-10-16T04:15:51;1.23;;;1.13;;
11453;SDS011;5783;55.174;61.310;2022-10-16T04:18:20;1.20;;;1.10;;
11453;SDS011;5783;55.174;61.310;2022-10-16T04:20:49;1.20;;;1.10;;
11453;SDS011;5783;55.174;61.310;2022-10-16T04:23:19;1.20;;;1.10;;
11453;SDS011;5783;55.174;61.310;2022-10-16T04:25:49;1.30;;;1.20;;
11453;SDS011;5783;55.174;61.310;2022-10-16T04:28:19;1.45;;;1.15;;
11453;SDS011;5783;55.174;61.310;2022-10-16T04:30:48;1.30;;;1.20;;
11453;SDS011;5783;55.174;61.310;2022-10-16T04:33:17;1.20;;;1.10;;
11453;SDS011;5783;55.174;61.310;2022-10-16T04:38:14;2.00;;;1.20;;
11453;SDS011;5783;55.174;61.310;2022-10-16T04:40:45;1.00;;;0.90;;
11453;SDS011;5783;55.174;61.310;2022-10-16T04:43:14;1.75;;;1.10;;
11453;SDS011;5783;55.174;61.310;2022-10-16T04:45:43;1.40;;;1.10;;
11453;SDS011;5783;55.174;61.310;2022-10-16T04:48:12;1.33;;;1.23;;
11453;SDS011;5783;55.174;61.310;2022-10-16T04:50:41;1.30;;;1.20;;
11453;SDS011;5783;55.174;61.310;2022-10-16T04:53:10;1.30;;;1.20;;
11453;SDS011;5783;55.174;61.310;2022-10-16T04:55:40;1.00;;;1.00;;
11453;SDS011;5783;55.174;61.310;2022-10-16T04:58:10;1.75;;;1.10;;
11453;SDS011;5783;55.174;61.310;2022-10-16T05:00:39;2.30;;;1.30;;
11453;SDS011;5783;55.174;61.310;2022-10-16T05:03:08;2.37;;;1.50;;
11453;SDS011;5783;55.174;61.310;2022-10-16T05:05:41;1.90;;;1.60;;
11453;SDS011;5783;55.174;61.310;2022-10-16T05:08:27;2.17;;;1.60;;
11453;SDS011;5783;55.174;61.310;2022-10-16T05:10:56;1.90;;;1.70;;
11453;SDS011;5783;55.174;61.310;2022-10-16T05:13:26;2.13;;;1.90;;
11453;SDS011;5783;55.174;61.310;2022-10-16T05:15:55;2.85;;;1.60;;
11453;SDS011;5783;55.174;61.310;2022-10-16T05:18:24;2.67;;;1.67;;
11453;SDS011;5783;55.174;61.310;2022-10-16T05:20:53;2.00;;;1.80;;
11453;SDS011;5783;55.174;61.310;2022-10-16T05:23:22;1.97;;;1.77;;
11453;SDS011;5783;55.174;61.310;2022-10-16T05:25:52;2.37;;;1.60;;
11453;SDS011;5783;55.174;61.310;2022-10-16T05:28:24;2.07;;;1.70;;
11453;SDS011;5783;55.174;61.310;2022-10-16T05:31:13;1.80;;;1.70;;
11453;SDS011;5783;55.174;61.310;2022-10-16T05:33:43;2.13;;;1.70;;
11453;SDS011;5783;55.174;61.310;2022-10-16T05:36:12;2.87;;;1.90;;
11453;SDS011;5783;55.174;61.310;2022-10-16T05:38:41;2.47;;;1.93;;
11453;SDS011;5783;55.174;61.310;2022-10-16T05:41:10;2.03;;;1.90;;
11453;SDS011;5783;55.174;61.310;2022-10-16T05:43:39;2.97;;;2.30;;
11453;SDS011;5783;55.174;61.310;2022-10-16T05:46:08;4.17;;;2.13;;
11453;SDS011;5783;55.174;61.310;2022-10-16T05:48:37;4.20;;;1.97;;
11453;SDS011;5783;55.174;61.310;2022-10-16T05:51:08;2.30;;;1.80;;
11453;SDS011;5783;55.174;61.310;2022-10-16T05:53:37;4.10;;;2.00;;
11453;SDS011;5783;55.174;61.310;2022-10-16T05:56:08;3.47;;;2.10;;
11453;SDS011;5783;55.174;61.310;2022-10-16T05:58:39;2.20;;;2.00;;
11453;SDS011;5783;55.174;61.310;2022-10-16T06:01:11;4.20;;;2.00;;
11453;SDS011;5783;55.174;61.310;2022-10-16T06:03:43;2.20;;;2.00;;
11453;SDS011;5783;55.174;61.310;2022-10-16T06:09:02;4.57;;;2.03;;
11453;SDS011;5783;55.174;61.310;2022-10-16T06:11:33;2.30;;;2.10;;
11453;SDS011;5783;55.174;61.310;2022-10-16T06:14:02;2.07;;;1.90;;
11453;SDS011;5783;55.174;61.310;2022-10-16T06:16:33;2.50;;;1.90;;
11453;SDS011;5783;55.174;61.310;2022-10-16T06:19:04;2.30;;;2.10;;
11453;SDS011;5783;55.174;61.310;2022-10-16T06:21:35;2.53;;;1.80;;
11453;SDS011;5783;55.174;61.310;2022-10-16T06:24:04;1.90;;;1.80;;
11453;SDS011;5783;55.174;61.310;2022-10-16T06:26:33;1.87;;;1.73;;
11453;SDS011;5783;55.174;61.310;2022-10-16T06:29:02;4.10;;;1.80;;
11453;SDS011;5783;55.174;61.310;2022-10-16T06:31:31;1.80;;;1.70;;
11453;SDS011;5783;55.174;61.310;2022-10-16T06:34:01;2.37;;;2.03;;
11453;SDS011;5783;55.174;61.310;2022-10-16T06:36:31;3.10;;;1.90;;
11453;SDS011;5783;55.174;61.310;2022-10-16T06:39:00;3.30;;;2.00;;
11453;SDS011;5783;55.174;61.310;2022-10-16T06:41:31;3.67;;;1.93;;
11453;SDS011;5783;55.174;61.310;2022-10-16T06:44:00;2.53;;;2.10;;
11453;SDS011;5783;55.174;61.310;2022-10-16T06:46:29;4.53;;;2.10;;
11453;SDS011;5783;55.174;61.310;2022-10-16T06:48:58;2.30;;;2.00;;
11453;SDS011;5783;55.174;61.310;2022-10-16T06:51:27;4.10;;;1.87;;
11453;SDS011;5783;55.174;61.310;2022-10-16T06:53:57;4.67;;;1.80;;
11453;SDS011;5783;55.174;61.310;2022-10-16T06:56:27;2.40;;;2.00;;
11453;SDS011;5783;55.174;61.310;2022-10-16T06:58:56;2.27;;;1.70;;
11453;SDS011;5783;55.174;61.310;2022-10-16T07:01:25;3.33;;;2.10;;
11453;SDS011;5783;55.174;61.310;2022-10-16T07:03:56;2.47;;;1.73;;
11453;SDS011;5783;55.174;61.310;2022-10-16T07:06:26;1.90;;;1.80;;
11453;SDS011;5783;55.174;61.310;2022-10-16T07:08:57;2.23;;;1.97;;
11453;SDS011;5783;55.174;61.310;2022-10-16T07:11:26;2.23;;;2.00;;
11453;SDS011;5783;55.174;61.310;2022-10-16T07:13:55;2.00;;;1.80;;
11453;SDS011;5783;55.174;61.310;2022-10-16T07:18:58;2.90;;;1.90;;
11453;SDS011;5783;55.174;61.310;2022-10-16T07:21:30;1.93;;;1.80;;
11453;SDS011;5783;55.174;61.310;2022-10-16T07:24:01;1.80;;;1.70;;
11453;SDS011;5783;55.174;61.310;2022-10-16T07:26:33;1.70;;;1.60;;
11453;SDS011;5783;55.174;61.310;2022-10-16T07:29:06;2.00;;;1.80;;
11453;SDS011;5783;55.174;61.310;2022-10-16T07:31:37;2.20;;;1.70;;
11453;SDS011;5783;55.174;61.310;2022-10-16T07:34:06;2.10;;;1.90;;
11453;SDS011;5783;55.174;61.310;2022-10-16T07:36:35;2.43;;;1.80;;
11453;SDS011;5783;55.174;61.310;2022-10-16T07:39:04;2.17;;;1.90;;
11453;SDS011;5783;55.174;61.310;2022-10-16T07:41:34;2.23;;;1.90;;
11453;SDS011;5783;55.174;61.310;2022-10-16T07:44:03;3.50;;;1.80;;
11453;SDS011;5783;55.174;61.310;2022-10-16T07:46:32;1.90;;;1.80;;
11453;SDS011;5783;55.174;61.310;2022-10-16T07:49:03;2.03;;;1.83;;
11453;SDS011;5783;55.174;61.310;2022-10-16T07:51:32;2.00;;;1.80;;
11453;SDS011;5783;55.174;61.310;2022-10-16T07:54:01;4.03;;;1.83;;
11453;SDS011;5783;55.174;61.310;2022-10-16T07:56:31;2.20;;;2.00;;
11453;SDS011;5783;55.174;61.310;2022-10-16T07:59:00;2.03;;;1.87;;
11453;SDS011;5783;55.174;61.310;2022-10-16T08:01:29;3.60;;;2.10;;
11453;SDS011;5783;55.174;61.310;2022-10-16T08:03:58;4.60;;;1.90;;
11453;SDS011;5783;55.174;61.310;2022-10-16T08:06:28;3.67;;;2.00;;
11453;SDS011;5783;55.174;61.310;2022-10-16T08:08:57;2.80;;;2.20;;
11453;SDS011;5783;55.174;61.310;2022-10-16T08:11:26;2.00;;;1.80;;
11453;SDS011;5783;55.174;61.310;2022-10-16T08:13:55;2.00;;;1.80;;
11453;SDS011;5783;55.174;61.310;2022-10-16T08:16:24;4.37;;;2.00;;
11453;SDS011;5783;55.174;61.310;2022-10-16T08:18:53;1.80;;;1.70;;
11453;SDS011;5783;55.174;61.310;2022-10-16T08:21:22;2.23;;;1.97;;
11453;SDS011;5783;55.174;61.310;2022-10-16T08:23:52;2.40;;;1.80;;
11453;SDS011;5783;55.174;61.310;2022-10-16T08:26:23;2.03;;;1.70;;
11453;SDS011;5783;55.174;61.310;2022-10-16T08:28:53;2.50;;;1.80;;
11453;SDS011;5783;55.174;61.310;2022-10-16T08:31:23;2.40;;;1.57;;
11453;SDS011;5783;55.174;61.310;2022-10-16T08:33:53;2.27;;;1.70;;
11453;SDS011;5783;55.174;61.310;2022-10-16T08:36:23;3.30;;;1.80;;
11453;SDS011;5783;55.174;61.310;2022-10-16T08:38:52;2.67;;;1.80;;
11453;SDS011;5783;55.174;61.310;2022-10-16T08:41:23;2.53;;;1.77;;
11453;SDS011;5783;55.174;61.310;2022-10-16T08:50:12;2.63;;;1.93;;
11453;SDS011;5783;55.174;61.310;2022-10-16T08:52:43;4.97;;;2.00;;
11453;SDS011;5783;55.174;61.310;2022-10-16T08:58:10;2.00;;;1.90;;
11453;SDS011;5783;55.174;61.310;2022-10-16T09:00:54;1.60;;;1.50;;
11453;SDS011;5783;55.174;61.310;2022-10-16T09:21:59;2.33;;;1.50;;
11453;SDS011;5783;55.174;61.310;2022-10-16T09:24:31;1.87;;;1.50;;
11453;SDS011;5783;55.174;61.310;2022-10-16T09:27:00;2.30;;;1.80;;
11453;SDS011;5783;55.174;61.310;2022-10-16T09:29:29;1.53;;;1.43;;
11453;SDS011;5783;55.174;61.310;2022-10-16T09:34:52;1.47;;;1.30;;
11453;SDS011;5783;55.174;61.310;2022-10-16T09:37:23;1.77;;;1.67;;
11453;SDS011;5783;55.174;61.310;2022-10-16T09:39:54;1.50;;;1.40;;
11453;SDS011;5783;55.174;61.310;2022-10-16T09:48:01;1.23;;;1.13;;
11453;SDS011;5783;55.174;61.310;2022-10-16T09:50:33;1.20;;;1.10;;
11453;SDS011;5783;55.174;61.310;2022-10-16T09:53:02;1.83;;;1.23;;
11453;SDS011;5783;55.174;61.310;2022-10-16T09:55:52;2.70;;;1.40;;
11453;SDS011;5783;55.174;61.310;2022-10-16T09:58:22;1.30;;;1.20;;
11453;SDS011;5783;55.174;61.310;2022-10-16T10:00:52;1.43;;;1.33;;
11453;SDS011;5783;55.174;61.310;2022-10-16T10:03:55;1.83;;;1.30;;
11453;SDS011;5783;55.174;61.310;2022-10-16T10:09:24;1.17;;;1.10;;
11453;SDS011;5783;55.174;61.310;2022-10-16T10:11:57;1.27;;;1.00;;
11453;SDS011;5783;55.174;61.310;2022-10-16T10:17:21;1.00;;;1.00;;
11453;SDS011;5783;55.174;61.310;2022-10-16T10:23:00;1.90;;;1.10;;
11453;SDS011;5783;55.174;61.310;2022-10-16T10:25:34;1.73;;;1.30;;
11453;SDS011;5783;55.174;61.310;2022-10-16T10:38:06;1.23;;;1.07;;
11453;SDS011;5783;55.174;61.310;2022-10-16T10:43:14;1.40;;;0.90;;
11453;SDS011;5783;55.174;61.310;2022-10-16T11:07:45;1.23;;;1.00;;
11453;SDS011;5783;55.174;61.310;2022-10-16T11:11:09;1.90;;;1.03;;
11453;SDS011;5783;55.174;61.310;2022-10-16T11:25:23;1.97;;;1.40;;
11453;SDS011;5783;55.174;61.310;2022-10-16T11:33:58;3.03;;;1.40;;
11453;SDS011;5783;55.174;61.310;2022-10-16T11:39:35;1.87;;;1.37;;
11453;SDS011;5783;55.174;61.310;2022-10-16T11:45:00;1.50;;;1.40;;
11453;SDS011;5783;55.174;61.310;2022-10-16T11:50:57;3.07;;;1.57;;
11453;SDS011;5783;55.174;61.310;2022-10-16T11:56:55;1.50;;;1.40;;
11453;SDS011;5783;55.174;61.310;2022-10-16T12:02:38;2.27;;;1.60;;
11453;SDS011;5783;55.174;61.310;2022-10-16T12:10:48;2.60;;;1.50;;
11453;SDS011;5783;55.174;61.310;2022-10-16T12:21:46;1.50;;;1.40;;
11453;SDS011;5783;55.174;61.310;2022-10-16T12:30:20;1.47;;;1.37;;
11453;SDS011;5783;55.174;61.310;2022-10-16T12:35:57;1.57;;;1.47;;
11453;SDS011;5783;55.174;61.310;2022-10-16T12:38:30;1.50;;;1.40;;
11453;SDS011;5783;55.174;61.310;2022-10-16T12:50:22;1.87;;;1.50;;
11453;SDS011;5783;55.174;61.310;2022-10-16T12:52:57;1.30;;;1.20;;
11453;SDS011;5783;55.174;61.310;2022-10-16T12:55:30;1.87;;;1.50;;
11453;SDS011;5783;55.174;61.310;2022-10-16T13:16:54;3.00;;;1.50;;
11453;SDS011;5783;55.174;61.310;2022-10-16T13:19:24;1.60;;;1.40;;
11453;SDS011;5783;55.174;61.310;2022-10-16T13:28:29;1.40;;;1.30;;
11453;SDS011;5783;55.174;61.310;2022-10-16T13:31:01;2.17;;;1.40;;
11453;SDS011;5783;55.174;61.310;2022-10-16T13:36:23;1.60;;;1.50;;
11453;SDS011;5783;55.174;61.310;2022-10-16T13:41:44;2.10;;;1.40;;
11453;SDS011;5783;55.174;61.310;2022-10-16T13:44:15;1.40;;;1.30;;
11453;SDS011;5783;55.174;61.310;2022-10-16T13:46:57;1.50;;;1.40;;
11453;SDS011;5783;55.174;61.310;2022-10-16T13:49:17;1.40;;;1.30;;
11453;SDS011;5783;55.174;61.310;2022-10-16T13:52:20;1.63;;;1.50;;
11453;SDS011;5783;55.174;61.310;2022-10-16T13:54:37;1.37;;;1.27;;
11453;SDS011;5783;55.174;61.310;2022-10-16T13:57:07;1.60;;;1.50;;
11453;SDS011;5783;55.174;61.310;2022-10-16T13:59:36;1.60;;;1.50;;
11453;SDS011;5783;55.174;61.310;2022-10-16T14:02:10;1.27;;;1.17;;
11453;SDS011;5783;55.174;61.310;2022-10-16T14:04:38;2.40;;;1.70;;
11453;SDS011;5783;55.174;61.310;2022-10-16T14:07:12;1.60;;;1.50;;
11453;SDS011;5783;55.174;61.310;2022-10-16T14:09:39;2.17;;;1.63;;
11453;SDS011;5783;55.174;61.310;2022-10-16T14:12:10;1.80;;;1.70;;
11453;SDS011;5783;55.174;61.310;2022-10-16T14:14:41;1.67;;;1.50;;
11453;SDS011;5783;55.174;61.310;2022-10-16T14:17:31;1.63;;;1.53;;
11453;SDS011;5783;55.174;61.310;2022-10-16T14:20:04;1.70;;;1.60;;
11453;SDS011;5783;55.174;61.310;2022-10-16T14:25:42;2.90;;;1.60;;
11453;SDS011;5783;55.174;61.310;2022-10-16T14:31:00;1.63;;;1.53;;
11453;SDS011;5783;55.174;61.310;2022-10-16T14:33:32;2.47;;;1.80;;
11453;SDS011;5783;55.174;61.310;2022-10-16T14:36:03;1.60;;;1.50;;
11453;SDS011;5783;55.174;61.310;2022-10-16T14:41:41;2.27;;;1.70;;
11453;SDS011;5783;55.174;61.310;2022-10-16T14:47:21;1.50;;;1.40;;
11453;SDS011;5783;55.174;61.310;2022-10-16T14:49:53;1.67;;;1.57;;
11453;SDS011;5783;55.174;61.310;2022-10-16T14:52:24;2.70;;;1.83;;
11453;SDS011;5783;55.174;61.310;2022-10-16T14:54:53;2.00;;;1.80;;
11453;SDS011;5783;55.174;61.310;2022-10-16T14:57:23;2.13;;;1.70;;
11453;SDS011;5783;55.174;61.310;2022-10-16T14:59:54;5.07;;;1.97;;
11453;SDS011;5783;55.174;61.310;2022-10-16T15:04:54;2.00;;;1.80;;
11453;SDS011;5783;55.174;61.310;2022-10-16T15:07:23;2.20;;;1.80;;
11453;SDS011;5783;55.174;61.310;2022-10-16T15:09:52;1.70;;;1.60;;
11453;SDS011;5783;55.174;61.310;2022-10-16T15:12:22;2.10;;;1.90;;
11453;SDS011;5783;55.174;61.310;2022-10-16T15:14:52;1.70;;;1.60;;
11453;SDS011;5783;55.174;61.310;2022-10-16T15:17:21;2.67;;;1.90;;
11453;SDS011;5783;55.174;61.310;2022-10-16T15:19:50;1.63;;;1.53;;
11453;SDS011;5783;55.174;61.310;2022-10-16T15:22:19;2.47;;;1.83;;
11453;SDS011;5783;55.174;61.310;2022-10-16T15:24:49;1.73;;;1.63;;
11453;SDS011;5783;55.174;61.310;2022-10-16T15:27:18;2.27;;;1.80;;
11453;SDS011;5783;55.174;61.310;2022-10-16T15:29:47;2.00;;;1.80;;
11453;SDS011;5783;55.174;61.310;2022-10-16T15:32:16;2.07;;;1.87;;
11453;SDS011;5783;55.174;61.310;2022-10-16T15:34:45;1.90;;;1.60;;
11453;SDS011;5783;55.174;61.310;2022-10-16T15:37:14;1.90;;;1.70;;
11453;SDS011;5783;55.174;61.310;2022-10-16T15:39:44;2.20;;;1.50;;
11453;SDS011;5783;55.174;61.310;2022-10-16T15:42:14;2.00;;;1.77;;
11453;SDS011;5783;55.174;61.310;2022-10-16T15:44:43;1.80;;;1.63;;
11453;SDS011;5783;55.174;61.310;2022-10-16T15:47:12;2.70;;;1.90;;
11453;SDS011;5783;55.174;61.310;2022-10-16T15:49:41;1.77;;;1.60;;
11453;SDS011;5783;55.174;61.310;2022-10-16T15:52:10;2.23;;;2.00;;
11453;SDS011;5783;55.174;61.310;2022-10-16T15:54:39;2.00;;;1.80;;
11453;SDS011;5783;55.174;61.310;2022-10-16T15:57:08;1.90;;;1.80;;
11453;SDS011;5783;55.174;61.310;2022-10-16T15:59:37;1.97;;;1.63;;
11453;SDS011;5783;55.174;61.310;2022-10-16T16:02:07;1.80;;;1.70;;
11453;SDS011;5783;55.174;61.310;2022-10-16T16:04:37;1.97;;;1.87;;
11453;SDS011;5783;55.174;61.310;2022-10-16T16:07:06;2.07;;;1.90;;
11453;SDS011;5783;55.174;61.310;2022-10-16T16:09:35;1.80;;;1.70;;
11453;SDS011;5783;55.174;61.310;2022-10-16T16:12:04;2.60;;;1.80;;
11453;SDS011;5783;55.174;61.310;2022-10-16T16:14:33;2.07;;;1.83;;
11453;SDS011;5783;55.174;61.310;2022-10-16T16:17:02;2.10;;;1.90;;
11453;SDS011;5783;55.174;61.310;2022-10-16T16:19:32;2.17;;;1.80;;
11453;SDS011;5783;55.174;61.310;2022-10-16T16:22:01;2.10;;;1.90;;
11453;SDS011;5783;55.174;61.310;2022-10-16T16:24:31;2.17;;;1.97;;
11453;SDS011;5783;55.174;61.310;2022-10-16T16:27:00;2.20;;;1.77;;
11453;SDS011;5783;55.174;61.310;2022-10-16T16:29:29;2.13;;;1.93;;
11453;SDS011;5783;55.174;61.310;2022-10-16T16:31:58;2.03;;;1.77;;
11453;SDS011;5783;55.174;61.310;2022-10-16T16:34:28;1.83;;;1.73;;
11453;SDS011;5783;55.174;61.310;2022-10-16T16:36:57;2.53;;;1.80;;
11453;SDS011;5783;55.174;61.310;2022-10-16T16:39:26;2.90;;;1.77;;
11453;SDS011;5783;55.174;61.310;2022-10-16T16:41:56;1.90;;;1.70;;
11453;SDS011;5783;55.174;61.310;2022-10-16T16:44:25;2.00;;;1.80;;
11453;SDS011;5783;55.174;61.310;2022-10-16T16:46:54;1.90;;;1.70;;
11453;SDS011;5783;55.174;61.310;2022-10-16T16:49:24;3.00;;;2.00;;
11453;SDS011;5783;55.174;61.310;2022-10-16T16:51:53;1.70;;;1.60;;
11453;SDS011;5783;55.174;61.310;2022-10-16T16:54:23;3.03;;;1.67;;
11453;SDS011;5783;55.174;61.310;2022-10-16T16:56:52;1.83;;;1.70;;
11453;SDS011;5783;55.174;61.310;2022-10-16T16:59:21;1.90;;;1.70;;
11453;SDS011;5783;55.174;61.310;2022-10-16T17:01:50;1.80;;;1.70;;
11453;SDS011;5783;55.174;61.310;2022-10-16T17:06:51;1.60;;;1.50;;
11453;SDS011;5783;55.174;61.310;2022-10-16T17:09:23;1.90;;;1.67;;
11453;SDS011;5783;55.174;61.310;2022-10-16T17:11:54;1.93;;;1.73;;
11453;SDS011;5783;55.174;61.310;2022-10-16T17:14:23;1.70;;;1.60;;
11453;SDS011;5783;55.174;61.310;2022-10-16T17:16:52;2.33;;;1.47;;
11453;SDS011;5783;55.174;61.310;2022-10-16T17:19:21;2.13;;;1.50;;
11453;SDS011;5783;55.174;61.310;2022-10-16T17:21:51;1.63;;;1.53;;
11453;SDS011;5783;55.174;61.310;2022-10-16T17:24:20;2.43;;;1.50;;
11453;SDS011;5783;55.174;61.310;2022-10-16T17:26:49;2.00;;;1.50;;
11453;SDS011;5783;55.174;61.310;2022-10-16T17:29:18;2.27;;;1.40;;
11453;SDS011;5783;55.174;61.310;2022-10-16T17:31:48;1.90;;;1.60;;
11453;SDS011;5783;55.174;61.310;2022-10-16T17:34:17;1.70;;;1.60;;
11453;SDS011;5783;55.174;61.310;2022-10-16T17:36:46;1.67;;;1.53;;
11453;SDS011;5783;55.174;61.310;2022-10-16T17:39:15;1.60;;;1.50;;
11453;SDS011;5783;55.174;61.310;2022-10-16T17:41:45;1.70;;;1.60;;
11453;SDS011;5783;55.174;61.310;2022-10-16T17:44:15;1.87;;;1.57;;
11453;SDS011;5783;55.174;61.310;2022-10-16T17:49:17;1.60;;;1.50;;
11453;SDS011;5783;55.174;61.310;2022-10-16T17:54:36;1.67;;;1.50;;
11453;SDS011;5783;55.174;61.310;2022-10-16T17:57:05;1.60;;;1.50;;
11453;SDS011;5783;55.174;61.310;2022-10-16T17:59:34;1.60;;;1.50;;
11453;SDS011;5783;55.174;61.310;2022-10-16T18:02:04;1.63;;;1.43;;
11453;SDS011;5783;55.174;61.310;2022-10-16T18:04:33;1.60;;;1.50;;
11453;SDS011;5783;55.174;61.310;2022-10-16T18:07:02;1.60;;;1.50;;
11453;SDS011;5783;55.174;61.310;2022-10-16T18:09:31;1.60;;;1.50;;
11453;SDS011;5783;55.174;61.310;2022-10-16T18:12:02;1.60;;;1.50;;
11453;SDS011;5783;55.174;61.310;2022-10-16T18:14:31;1.50;;;1.40;;
11453;SDS011;5783;55.174;61.310;2022-10-16T18:17:00;1.63;;;1.53;;
11453;SDS011;5783;55.174;61.310;2022-10-16T18:19:29;1.87;;;1.67;;
11453;SDS011;5783;55.174;61.310;2022-10-16T18:21:58;1.60;;;1.50;;
11453;SDS011;5783;55.174;61.310;2022-10-16T18:24:28;1.63;;;1.53;;
11453;SDS011;5783;55.174;61.310;2022-10-16T18:26:57;1.20;;;1.10;;
11453;SDS011;5783;55.174;61.310;2022-10-16T18:29:26;1.53;;;1.43;;
11453;SDS011;5783;55.174;61.310;2022-10-16T18:31:55;1.73;;;1.63;;
11453;SDS011;5783;55.174;61.310;2022-10-16T18:34:24;1.67;;;1.57;;
11453;SDS011;5783;55.174;61.310;2022-10-16T18:36:53;1.90;;;1.70;;
11453;SDS011;5783;55.174;61.310;2022-10-16T18:39:23;1.50;;;1.40;;
11453;SDS011;5783;55.174;61.310;2022-10-16T18:41:52;1.60;;;1.50;;
11453;SDS011;5783;55.174;61.310;2022-10-16T18:44:25;2.50;;;1.60;;
11453;SDS011;5783;55.174;61.310;2022-10-16T18:46:56;2.23;;;1.43;;
11453;SDS011;5783;55.174;61.310;2022-10-16T18:49:26;1.93;;;1.77;;
11453;SDS011;5783;55.174;61.310;2022-10-16T18:51:55;1.60;;;1.50;;
11453;SDS011;5783;55.174;61.310;2022-10-16T18:54:26;1.47;;;1.37;;
11453;SDS011;5783;55.174;61.310;2022-10-16T18:56:55;1.53;;;1.43;;
11453;SDS011;5783;55.174;61.310;2022-10-16T18:59:24;1.87;;;1.53;;
11453;SDS011;5783;55.174;61.310;2022-10-16T19:01:54;1.90;;;1.50;;
11453;SDS011;5783;55.174;61.310;2022-10-16T19:04:23;1.70;;;1.60;;
11453;SDS011;5783;55.174;61.310;2022-10-16T19:06:52;1.70;;;1.60;;
11453;SDS011;5783;55.174;61.310;2022-10-16T19:09:21;1.63;;;1.53;;
11453;SDS011;5783;55.174;61.310;2022-10-16T19:11:52;1.67;;;1.57;;
11453;SDS011;5783;55.174;61.310;2022-10-16T19:14:22;1.50;;;1.40;;
11453;SDS011;5783;55.174;61.310;2022-10-16T19:16:52;1.50;;;1.40;;
11453;SDS011;5783;55.174;61.310;2022-10-16T19:19:21;1.47;;;1.37;;
11453;SDS011;5783;55.174;61.310;2022-10-16T19:21:50;1.50;;;1.40;;
11453;SDS011;5783;55.174;61.310;2022-10-16T19:24:39;1.47;;;1.37;;
11453;SDS011;5783;55.174;61.310;2022-10-16T19:27:09;2.07;;;1.47;;
11453;SDS011;5783;55.174;61.310;2022-10-16T19:29:38;1.27;;;1.17;;
11453;SDS011;5783;55.174;61.310;2022-10-16T19:32:07;1.60;;;1.50;;
11453;SDS011;5783;55.174;61.310;2022-10-16T19:34:36;1.40;;;1.30;;
11453;SDS011;5783;55.174;61.310;2022-10-16T19:37:05;1.37;;;1.27;;
11453;SDS011;5783;55.174;61.310;2022-10-16T19:39:35;1.30;;;1.20;;
11453;SDS011;5783;55.174;61.310;2022-10-16T19:42:04;1.30;;;1.20;;
11453;SDS011;5783;55.174;61.310;2022-10-16T19:44:34;1.30;;;1.20;;
11453;SDS011;5783;55.174;61.310;2022-10-16T19:47:03;1.30;;;1.20;;